Etusivu
METAR-TAF:

METAR-TAF

Lentoasemat :

Silver Bay Municipal Airport

Silver Bay, Minnesota, Yhdysvallat

Leveyspiiri: 47-12N, Pituuspiiri: 091-24W, korkeus merenpinnasta: 331 m

Tämänhetkinen sää

Tämä raportti tehtiin 24 minuuttia sitten, kello 01.35 UTC
Tuuli 3 kn lounaasta
Lämpötila -6°C
Kosteus 86%
Ilmanpaine 1012 hPa
Näkyvyys: 11.3 km
selkeää

METAR: KBFW 110135Z AUTO 23003KT 7SM CLR M06/M08 A2988 RMK AO2

Aika: 19:59 (01:59 UTC)


TAF: puuttuu

Säähavainnot ja -ennusteet yli 4000 lentoasemalta (METAR- ja TAF-raportit).

Käytössä olevat sääasemat on merkitty karttaan keltaisilla ja punaisilla pisteillä.

Aseta hiiri pisteen päälle nähdäksesi sääaseman nimen.

Klikkaa sitten nähdäksesi säähavainnot ja -ennusteet.

Kartan vaihtaminen: klikkaa mustalla rastilla varustettuja vihreitä pisteitä, niin voit zoomata sisään; viivalla varustettua vihreää pistettä, niin voit zoomata ulos tai vihreitä nuolia, niin pääset viereisille kartoille.


METAR-TAF: